sensor_id;sensor_type;location;lat;lon;timestamp;pressure;altitude;pressure_sealevel;temperature;humidity
6096;BME280;25081;42.698;23.298;2022-07-22T00:00:44;95264.03;;;22.56;50.28
6096;BME280;25081;42.698;23.298;2022-07-22T00:02:55;95270.72;;;22.45;50.72
6096;BME280;25081;42.698;23.298;2022-07-22T00:05:07;95268.89;;;22.40;51.23
6096;BME280;25081;42.698;23.298;2022-07-22T00:07:18;95274.58;;;22.41;51.08
6096;BME280;25081;42.698;23.298;2022-07-22T00:09:29;95271.05;;;22.41;51.19
6096;BME280;25081;42.698;23.298;2022-07-22T00:11:39;95272.67;;;22.42;51.04
6096;BME280;25081;42.698;23.298;2022-07-22T00:13:50;95277.44;;;22.31;51.45
6096;BME280;25081;42.698;23.298;2022-07-22T00:16:01;95273.41;;;22.26;51.52
6096;BME280;25081;42.698;23.298;2022-07-22T00:18:11;95275.11;;;22.22;51.74
6096;BME280;25081;42.698;23.298;2022-07-22T00:20:22;95272.70;;;22.18;51.78
6096;BME280;25081;42.698;23.298;2022-07-22T00:22:33;95276.10;;;22.05;52.04
6096;BME280;25081;42.698;23.298;2022-07-22T00:24:43;95279.61;;;21.84;51.96
6096;BME280;25081;42.698;23.298;2022-07-22T00:26:54;95278.80;;;21.83;52.12
6096;BME280;25081;42.698;23.298;2022-07-22T00:29:05;95278.11;;;21.73;52.33
6096;BME280;25081;42.698;23.298;2022-07-22T00:31:15;95277.95;;;21.85;52.06
6096;BME280;25081;42.698;23.298;2022-07-22T00:33:25;95276.00;;;21.91;51.76
6096;BME280;25081;42.698;23.298;2022-07-22T00:35:36;95279.23;;;21.93;51.67
6096;BME280;25081;42.698;23.298;2022-07-22T00:37:47;95284.37;;;21.94;51.65
6096;BME280;25081;42.698;23.298;2022-07-22T00:39:57;95283.05;;;21.89;52.06
6096;BME280;25081;42.698;23.298;2022-07-22T00:42:08;95287.20;;;21.84;52.08
6096;BME280;25081;42.698;23.298;2022-07-22T00:44:19;95289.84;;;21.92;52.17
6096;BME280;25081;42.698;23.298;2022-07-22T00:46:30;95290.94;;;21.88;52.27
6096;BME280;25081;42.698;23.298;2022-07-22T00:48:40;95293.65;;;21.91;52.17
6096;BME280;25081;42.698;23.298;2022-07-22T00:50:51;95293.95;;;21.60;52.87
6096;BME280;25081;42.698;23.298;2022-07-22T00:53:02;95286.47;;;21.50;52.50
6096;BME280;25081;42.698;23.298;2022-07-22T00:55:12;95287.17;;;21.34;52.44
6096;BME280;25081;42.698;23.298;2022-07-22T00:57:23;95284.11;;;21.40;52.16
6096;BME280;25081;42.698;23.298;2022-07-22T00:59:34;95282.94;;;21.49;52.09
6096;BME280;25081;42.698;23.298;2022-07-22T01:01:44;95280.48;;;21.50;52.10
6096;BME280;25081;42.698;23.298;2022-07-22T01:03:55;95279.12;;;21.53;52.09
6096;BME280;25081;42.698;23.298;2022-07-22T01:06:07;95280.20;;;21.52;52.26
6096;BME280;25081;42.698;23.298;2022-07-22T01:08:17;95283.02;;;21.44;52.13
6096;BME280;25081;42.698;23.298;2022-07-22T01:10:28;95283.02;;;21.44;52.91
6096;BME280;25081;42.698;23.298;2022-07-22T01:12:39;95283.91;;;21.34;52.73
6096;BME280;25081;42.698;23.298;2022-07-22T01:14:49;95288.73;;;21.40;52.85
6096;BME280;25081;42.698;23.298;2022-07-22T01:17:00;95281.11;;;21.42;53.41
6096;BME280;25081;42.698;23.298;2022-07-22T01:19:10;95287.11;;;21.39;53.24
6096;BME280;25081;42.698;23.298;2022-07-22T01:21:21;95282.56;;;21.32;53.05
6096;BME280;25081;42.698;23.298;2022-07-22T01:23:32;95284.20;;;21.30;53.00
6096;BME280;25081;42.698;23.298;2022-07-22T01:25:42;95286.41;;;21.28;54.14
6096;BME280;25081;42.698;23.298;2022-07-22T01:27:53;95286.29;;;21.07;53.79
6096;BME280;25081;42.698;23.298;2022-07-22T01:30:05;95289.52;;;21.09;53.99
6096;BME280;25081;42.698;23.298;2022-07-22T01:32:15;95287.33;;;21.11;54.10
6096;BME280;25081;42.698;23.298;2022-07-22T01:34:26;95290.87;;;21.09;53.76
6096;BME280;25081;42.698;23.298;2022-07-22T01:36:37;95285.19;;;21.08;54.48
6096;BME280;25081;42.698;23.298;2022-07-22T01:38:47;95290.81;;;21.17;54.00
6096;BME280;25081;42.698;23.298;2022-07-22T01:40:58;95278.55;;;21.22;53.81
6096;BME280;25081;42.698;23.298;2022-07-22T01:43:09;95289.98;;;21.19;54.23
6096;BME280;25081;42.698;23.298;2022-07-22T01:45:19;95287.81;;;21.18;54.30
6096;BME280;25081;42.698;23.298;2022-07-22T01:47:30;95289.20;;;21.13;54.40
6096;BME280;25081;42.698;23.298;2022-07-22T01:49:40;95287.61;;;21.09;54.64
6096;BME280;25081;42.698;23.298;2022-07-22T01:51:51;95284.41;;;21.02;55.05
6096;BME280;25081;42.698;23.298;2022-07-22T01:54:02;95284.96;;;21.04;55.27
6096;BME280;25081;42.698;23.298;2022-07-22T01:56:12;95289.08;;;20.97;55.62
6096;BME280;25081;42.698;23.298;2022-07-22T01:58:23;95288.64;;;20.84;55.95
6096;BME280;25081;42.698;23.298;2022-07-22T02:00:34;95285.42;;;20.75;56.48
6096;BME280;25081;42.698;23.298;2022-07-22T02:02:44;95292.70;;;20.84;55.85
6096;BME280;25081;42.698;23.298;2022-07-22T02:04:55;95297.23;;;20.92;55.58
6096;BME280;25081;42.698;23.298;2022-07-22T02:07:06;95298.91;;;20.88;55.65
6096;BME280;25081;42.698;23.298;2022-07-22T02:09:17;95305.39;;;20.89;55.60
6096;BME280;25081;42.698;23.298;2022-07-22T02:11:28;95301.35;;;20.84;55.71
6096;BME280;25081;42.698;23.298;2022-07-22T02:13:38;95307.66;;;20.77;55.99
6096;BME280;25081;42.698;23.298;2022-07-22T02:15:49;95314.42;;;20.74;56.28
6096;BME280;25081;42.698;23.298;2022-07-22T02:17:59;95310.38;;;20.72;56.45
6096;BME280;25081;42.698;23.298;2022-07-22T02:20:11;95314.80;;;20.60;57.00
6096;BME280;25081;42.698;23.298;2022-07-22T02:22:22;95312.61;;;20.62;56.82
6096;BME280;25081;42.698;23.298;2022-07-22T02:24:32;95310.28;;;20.35;57.84
6096;BME280;25081;42.698;23.298;2022-07-22T02:26:43;95313.53;;;20.35;57.87
6096;BME280;25081;42.698;23.298;2022-07-22T02:28:54;95313.25;;;20.36;57.74
6096;BME280;25081;42.698;23.298;2022-07-22T02:31:05;95313.25;;;20.44;57.41
6096;BME280;25081;42.698;23.298;2022-07-22T02:33:16;95313.24;;;20.41;57.33
6096;BME280;25081;42.698;23.298;2022-07-22T02:35:26;95323.30;;;20.33;57.51
6096;BME280;25081;42.698;23.298;2022-07-22T02:37:37;95316.32;;;20.17;57.97
6096;BME280;25081;42.698;23.298;2022-07-22T02:39:47;95317.69;;;20.14;58.02
6096;BME280;25081;42.698;23.298;2022-07-22T02:41:58;95311.84;;;19.89;58.58
6096;BME280;25081;42.698;23.298;2022-07-22T02:44:08;95314.00;;;19.85;58.79
6096;BME280;25081;42.698;23.298;2022-07-22T02:46:19;95312.14;;;19.80;58.96
6096;BME280;25081;42.698;23.298;2022-07-22T02:48:29;95309.19;;;19.59;59.67
6096;BME280;25081;42.698;23.298;2022-07-22T02:50:45;95305.66;;;19.68;59.17
6096;BME280;25081;42.698;23.298;2022-07-22T02:52:56;95305.66;;;19.68;59.17
6096;BME280;25081;42.698;23.298;2022-07-22T02:55:08;95316.73;;;19.82;59.16
6096;BME280;25081;42.698;23.298;2022-07-22T02:57:18;95298.33;;;19.77;59.16
6096;BME280;25081;42.698;23.298;2022-07-22T02:59:29;95311.06;;;19.68;59.73
6096;BME280;25081;42.698;23.298;2022-07-22T03:01:40;95308.11;;;19.70;59.53
6096;BME280;25081;42.698;23.298;2022-07-22T03:03:51;95316.23;;;19.70;59.53
6096;BME280;25081;42.698;23.298;2022-07-22T03:06:01;95312.96;;;19.68;59.68
6096;BME280;25081;42.698;23.298;2022-07-22T03:08:12;95315.95;;;19.64;59.71
6096;BME280;25081;42.698;23.298;2022-07-22T03:10:23;95315.41;;;19.64;59.85
6096;BME280;25081;42.698;23.298;2022-07-22T03:12:33;95306.50;;;19.61;59.72
6096;BME280;25081;42.698;23.298;2022-07-22T03:14:44;95316.75;;;19.72;59.65
6096;BME280;25081;42.698;23.298;2022-07-22T03:16:55;95311.03;;;19.84;59.26
6096;BME280;25081;42.698;23.298;2022-07-22T03:19:05;95310.23;;;19.88;59.14
6096;BME280;25081;42.698;23.298;2022-07-22T03:21:16;95315.59;;;19.96;58.93
6096;BME280;25081;42.698;23.298;2022-07-22T03:23:26;95315.85;;;20.02;58.69
6096;BME280;25081;42.698;23.298;2022-07-22T03:25:37;95318.27;;;20.09;58.54
6096;BME280;25081;42.698;23.298;2022-07-22T03:27:47;95312.86;;;20.09;58.49
6096;BME280;25081;42.698;23.298;2022-07-22T03:29:58;95312.56;;;20.13;58.51
6096;BME280;25081;42.698;23.298;2022-07-22T03:32:09;95317.08;;;20.33;58.10
6096;BME280;25081;42.698;23.298;2022-07-22T03:34:19;95317.53;;;20.57;57.51
6096;BME280;25081;42.698;23.298;2022-07-22T03:36:30;95315.52;;;20.76;56.84
6096;BME280;25081;42.698;23.298;2022-07-22T03:38:40;95313.71;;;21.00;56.16
6096;BME280;25081;42.698;23.298;2022-07-22T03:40:51;95317.33;;;21.25;55.43
6096;BME280;25081;42.698;23.298;2022-07-22T03:43:02;95313.59;;;21.52;54.46
6096;BME280;25081;42.698;23.298;2022-07-22T03:45:12;95316.36;;;21.74;53.61
6096;BME280;25081;42.698;23.298;2022-07-22T03:47:23;95325.02;;;22.02;52.92
6096;BME280;25081;42.698;23.298;2022-07-22T03:49:34;95320.77;;;22.20;52.09
6096;BME280;25081;42.698;23.298;2022-07-22T03:51:44;95323.28;;;22.35;51.56
6096;BME280;25081;42.698;23.298;2022-07-22T03:53:55;95324.00;;;22.43;51.13
6096;BME280;25081;42.698;23.298;2022-07-22T03:56:07;95327.33;;;22.59;50.65
6096;BME280;25081;42.698;23.298;2022-07-22T03:58:18;95331.16;;;22.55;50.45
6096;BME280;25081;42.698;23.298;2022-07-22T04:00:29;95332.73;;;22.40;50.40
6096;BME280;25081;42.698;23.298;2022-07-22T04:02:40;95336.11;;;21.50;52.87
6096;BME280;25081;42.698;23.298;2022-07-22T04:04:50;95339.66;;;21.14;53.45
6096;BME280;25081;42.698;23.298;2022-07-22T04:07:01;95332.28;;;20.80;54.40
6096;BME280;25081;42.698;23.298;2022-07-22T04:09:11;95339.46;;;20.58;55.37
6096;BME280;25081;42.698;23.298;2022-07-22T04:11:22;95340.07;;;20.35;55.81
6096;BME280;25081;42.698;23.298;2022-07-22T04:13:33;95343.59;;;20.38;55.92
6096;BME280;25081;42.698;23.298;2022-07-22T04:15:43;95348.18;;;20.45;55.91
6096;BME280;25081;42.698;23.298;2022-07-22T04:17:54;95348.20;;;20.43;56.05
6096;BME280;25081;42.698;23.298;2022-07-22T04:20:07;95350.36;;;20.43;55.84
6096;BME280;25081;42.698;23.298;2022-07-22T04:22:17;95349.83;;;20.46;56.10
6096;BME280;25081;42.698;23.298;2022-07-22T04:24:28;95347.81;;;20.65;55.27
6096;BME280;25081;42.698;23.298;2022-07-22T04:26:39;95346.11;;;20.79;54.56
6096;BME280;25081;42.698;23.298;2022-07-22T04:28:49;95339.58;;;20.82;54.76
6096;BME280;25081;42.698;23.298;2022-07-22T04:31:00;95345.24;;;20.89;54.64
6096;BME280;25081;42.698;23.298;2022-07-22T04:33:11;95349.27;;;20.96;54.78
6096;BME280;25081;42.698;23.298;2022-07-22T04:35:21;95353.88;;;20.93;55.01
6096;BME280;25081;42.698;23.298;2022-07-22T04:37:32;95360.56;;;21.08;54.12
6096;BME280;25081;42.698;23.298;2022-07-22T04:39:43;95360.17;;;21.23;53.66
6096;BME280;25081;42.698;23.298;2022-07-22T04:41:53;95359.98;;;21.14;53.74
6096;BME280;25081;42.698;23.298;2022-07-22T04:44:04;95360.52;;;21.53;52.99
6096;BME280;25081;42.698;23.298;2022-07-22T04:46:15;95359.61;;;22.42;50.65
6096;BME280;25081;42.698;23.298;2022-07-22T04:48:26;95353.48;;;22.95;48.82
6096;BME280;25081;42.698;23.298;2022-07-22T04:50:37;95363.38;;;23.26;48.47
6096;BME280;25081;42.698;23.298;2022-07-22T04:52:48;95356.98;;;23.98;46.64
6096;BME280;25081;42.698;23.298;2022-07-22T04:54:59;95365.69;;;24.28;45.68
6096;BME280;25081;42.698;23.298;2022-07-22T04:57:09;95361.10;;;24.81;44.61
6096;BME280;25081;42.698;23.298;2022-07-22T04:59:20;95357.91;;;25.26;43.28
6096;BME280;25081;42.698;23.298;2022-07-22T05:01:31;95359.53;;;25.61;42.22
6096;BME280;25081;42.698;23.298;2022-07-22T05:03:42;95359.83;;;25.37;43.02
6096;BME280;25081;42.698;23.298;2022-07-22T05:05:52;95363.88;;;25.62;42.39
6096;BME280;25081;42.698;23.298;2022-07-22T05:08:04;95365.31;;;25.59;41.92
6096;BME280;25081;42.698;23.298;2022-07-22T05:10:14;95365.83;;;26.04;41.34
6096;BME280;25081;42.698;23.298;2022-07-22T05:12:25;95362.36;;;26.80;39.56
6096;BME280;25081;42.698;23.298;2022-07-22T05:14:36;95370.44;;;26.85;39.27
6096;BME280;25081;42.698;23.298;2022-07-22T05:16:46;95365.31;;;27.87;37.23
6096;BME280;25081;42.698;23.298;2022-07-22T05:18:57;95364.02;;;28.64;35.77
6096;BME280;25081;42.698;23.298;2022-07-22T05:21:08;95365.75;;;28.77;35.53
6096;BME280;25081;42.698;23.298;2022-07-22T05:23:18;95361.80;;;28.10;36.32
6096;BME280;25081;42.698;23.298;2022-07-22T05:25:29;95369.52;;;27.59;37.85
6096;BME280;25081;42.698;23.298;2022-07-22T05:27:43;95364.16;;;27.22;38.39
6096;BME280;25081;42.698;23.298;2022-07-22T05:29:50;95367.91;;;27.06;38.57
6096;BME280;25081;42.698;23.298;2022-07-22T05:32:01;95369.86;;;27.14;38.35
6096;BME280;25081;42.698;23.298;2022-07-22T05:34:12;95377.57;;;28.22;36.68
6096;BME280;25081;42.698;23.298;2022-07-22T05:36:22;95376.89;;;28.95;35.45
6096;BME280;25081;42.698;23.298;2022-07-22T05:38:33;95371.47;;;28.78;35.22
6096;BME280;25081;42.698;23.298;2022-07-22T05:40:44;95370.34;;;29.29;34.47
6096;BME280;25081;42.698;23.298;2022-07-22T05:42:55;95377.00;;;29.49;33.82
6096;BME280;25081;42.698;23.298;2022-07-22T05:45:07;95371.76;;;29.15;34.02
6096;BME280;25081;42.698;23.298;2022-07-22T05:47:18;95369.13;;;27.46;37.35
6096;BME280;25081;42.698;23.298;2022-07-22T05:49:28;95377.09;;;27.10;38.01
6096;BME280;25081;42.698;23.298;2022-07-22T05:51:39;95376.47;;;27.02;38.26
6096;BME280;25081;42.698;23.298;2022-07-22T05:53:49;95375.66;;;27.56;37.53
6096;BME280;25081;42.698;23.298;2022-07-22T05:56:00;95373.59;;;29.02;35.02
6096;BME280;25081;42.698;23.298;2022-07-22T05:58:11;95374.97;;;29.38;34.65
6096;BME280;25081;42.698;23.298;2022-07-22T06:00:21;95368.73;;;30.03;33.40
6096;BME280;25081;42.698;23.298;2022-07-22T06:02:32;95360.66;;;31.41;31.16
6096;BME280;25081;42.698;23.298;2022-07-22T06:04:43;95359.42;;;32.38;29.48
6096;BME280;25081;42.698;23.298;2022-07-22T06:06:53;95358.27;;;32.39;29.39
6096;BME280;25081;42.698;23.298;2022-07-22T06:09:04;95359.90;;;32.12;30.21
6096;BME280;25081;42.698;23.298;2022-07-22T06:11:15;95361.08;;;32.49;29.70
6096;BME280;25081;42.698;23.298;2022-07-22T06:13:25;95357.17;;;31.84;30.72
6096;BME280;25081;42.698;23.298;2022-07-22T06:15:36;95363.66;;;31.64;31.08
6096;BME280;25081;42.698;23.298;2022-07-22T06:17:47;95367.36;;;32.87;28.61
6096;BME280;25081;42.698;23.298;2022-07-22T06:19:57;95364.95;;;33.37;28.07
6096;BME280;25081;42.698;23.298;2022-07-22T06:22:08;95363.31;;;32.43;29.38
6096;BME280;25081;42.698;23.298;2022-07-22T06:24:19;95363.06;;;32.42;29.41
6096;BME280;25081;42.698;23.298;2022-07-22T06:26:30;95365.33;;;32.53;29.59
6096;BME280;25081;42.698;23.298;2022-07-22T06:28:41;95371.77;;;32.66;29.61
6096;BME280;25081;42.698;23.298;2022-07-22T06:30:51;95373.16;;;33.33;28.14
6096;BME280;25081;42.698;23.298;2022-07-22T06:33:02;95360.89;;;34.18;26.67
6096;BME280;25081;42.698;23.298;2022-07-22T06:35:13;95369.81;;;32.29;28.55
6096;BME280;25081;42.698;23.298;2022-07-22T06:37:24;95363.89;;;31.37;30.78
6096;BME280;25081;42.698;23.298;2022-07-22T06:39:35;95367.30;;;33.54;27.82
6096;BME280;25081;42.698;23.298;2022-07-22T06:41:45;95376.27;;;33.96;26.33
6096;BME280;25081;42.698;23.298;2022-07-22T06:43:56;95366.56;;;33.57;27.65
6096;BME280;25081;42.698;23.298;2022-07-22T06:46:06;95364.18;;;34.69;26.06
6096;BME280;25081;42.698;23.298;2022-07-22T06:48:17;95356.17;;;35.53;24.41
6096;BME280;25081;42.698;23.298;2022-07-22T06:50:28;95358.89;;;36.50;23.28
6096;BME280;25081;42.698;23.298;2022-07-22T06:52:40;95362.55;;;35.87;24.39
6096;BME280;25081;42.698;23.298;2022-07-22T06:54:50;95362.70;;;36.35;23.76
6096;BME280;25081;42.698;23.298;2022-07-22T06:57:01;95356.48;;;36.69;23.37
6096;BME280;25081;42.698;23.298;2022-07-22T06:59:12;95352.58;;;36.77;22.91
6096;BME280;25081;42.698;23.298;2022-07-22T07:01:22;95360.97;;;36.60;23.21
6096;BME280;25081;42.698;23.298;2022-07-22T07:03:33;95358.84;;;36.47;23.43
6096;BME280;25081;42.698;23.298;2022-07-22T07:05:43;95359.22;;;36.08;24.20
6096;BME280;25081;42.698;23.298;2022-07-22T07:07:54;95355.27;;;36.46;23.54
6096;BME280;25081;42.698;23.298;2022-07-22T07:10:06;95361.53;;;36.80;22.90
6096;BME280;25081;42.698;23.298;2022-07-22T07:12:16;95363.42;;;37.17;22.21
6096;BME280;25081;42.698;23.298;2022-07-22T07:14:27;95363.03;;;36.30;23.18
6096;BME280;25081;42.698;23.298;2022-07-22T07:16:37;95362.77;;;35.32;25.11
6096;BME280;25081;42.698;23.298;2022-07-22T07:18:48;95364.00;;;35.91;24.19
6096;BME280;25081;42.698;23.298;2022-07-22T07:20:58;95360.02;;;36.29;23.65
6096;BME280;25081;42.698;23.298;2022-07-22T07:23:09;95357.28;;;35.22;25.16
6096;BME280;25081;42.698;23.298;2022-07-22T07:25:20;95368.34;;;36.42;24.37
6096;BME280;25081;42.698;23.298;2022-07-22T07:27:30;95363.62;;;35.62;25.13
6096;BME280;25081;42.698;23.298;2022-07-22T07:29:41;95367.48;;;35.27;25.24
6096;BME280;25081;42.698;23.298;2022-07-22T07:31:51;95360.45;;;35.80;24.67
6096;BME280;25081;42.698;23.298;2022-07-22T07:34:02;95361.98;;;37.13;22.76
6096;BME280;25081;42.698;23.298;2022-07-22T07:36:13;95361.04;;;37.46;22.42
6096;BME280;25081;42.698;23.298;2022-07-22T07:38:23;95359.30;;;37.55;22.11
6096;BME280;25081;42.698;23.298;2022-07-22T07:40:34;95357.42;;;37.15;22.76
6096;BME280;25081;42.698;23.298;2022-07-22T07:42:45;95356.47;;;37.17;22.88
6096;BME280;25081;42.698;23.298;2022-07-22T07:44:55;95356.67;;;37.84;21.62
6096;BME280;25081;42.698;23.298;2022-07-22T07:47:06;95354.72;;;38.02;21.07
6096;BME280;25081;42.698;23.298;2022-07-22T07:49:17;95356.42;;;37.41;21.47
6096;BME280;25081;42.698;23.298;2022-07-22T07:51:28;95357.97;;;37.73;21.67
6096;BME280;25081;42.698;23.298;2022-07-22T07:53:38;95361.25;;;37.89;20.54
6096;BME280;25081;42.698;23.298;2022-07-22T07:55:49;95359.52;;;38.08;20.34
6096;BME280;25081;42.698;23.298;2022-07-22T07:58:01;95361.73;;;37.71;20.89
6096;BME280;25081;42.698;23.298;2022-07-22T08:00:12;95361.65;;;37.22;20.80
6096;BME280;25081;42.698;23.298;2022-07-22T08:02:23;95365.02;;;37.45;21.14
6096;BME280;25081;42.698;23.298;2022-07-22T08:04:34;95348.52;;;38.69;20.50
6096;BME280;25081;42.698;23.298;2022-07-22T08:06:44;95348.46;;;39.58;19.55
6096;BME280;25081;42.698;23.298;2022-07-22T08:08:55;95354.03;;;39.51;19.30
6096;BME280;25081;42.698;23.298;2022-07-22T08:11:05;95356.66;;;39.39;19.26
6096;BME280;25081;42.698;23.298;2022-07-22T08:13:16;95357.99;;;39.64;18.48
6096;BME280;25081;42.698;23.298;2022-07-22T08:15:27;95354.84;;;39.48;18.56
6096;BME280;25081;42.698;23.298;2022-07-22T08:17:37;95358.68;;;39.28;18.27
6096;BME280;25081;42.698;23.298;2022-07-22T08:19:48;95352.88;;;38.52;18.85
6096;BME280;25081;42.698;23.298;2022-07-22T08:21:59;95357.33;;;38.04;19.77
6096;BME280;25081;42.698;23.298;2022-07-22T08:24:10;95361.80;;;37.78;20.42
6096;BME280;25081;42.698;23.298;2022-07-22T08:26:21;95357.63;;;37.43;20.90
6096;BME280;25081;42.698;23.298;2022-07-22T08:28:32;95357.33;;;36.97;21.53
6096;BME280;25081;42.698;23.298;2022-07-22T08:30:43;95358.71;;;37.59;21.39
6096;BME280;25081;42.698;23.298;2022-07-22T08:32:53;95356.57;;;37.73;21.07
6096;BME280;25081;42.698;23.298;2022-07-22T08:35:05;95357.76;;;38.14;20.18
6096;BME280;25081;42.698;23.298;2022-07-22T08:37:16;95352.36;;;38.04;20.34
6096;BME280;25081;42.698;23.298;2022-07-22T08:39:26;95355.52;;;37.95;20.39
6096;BME280;25081;42.698;23.298;2022-07-22T08:41:37;95354.98;;;37.72;20.82
6096;BME280;25081;42.698;23.298;2022-07-22T08:43:47;95355.58;;;37.30;21.25
6096;BME280;25081;42.698;23.298;2022-07-22T08:45:58;95351.59;;;38.18;20.72
6096;BME280;25081;42.698;23.298;2022-07-22T08:48:08;95350.08;;;38.59;19.91
6096;BME280;25081;42.698;23.298;2022-07-22T08:50:19;95346.88;;;38.36;19.86
6096;BME280;25081;42.698;23.298;2022-07-22T08:52:30;95349.08;;;38.33;20.64
6096;BME280;25081;42.698;23.298;2022-07-22T08:54:40;95345.91;;;38.99;20.30
6096;BME280;25081;42.698;23.298;2022-07-22T08:56:51;95349.06;;;40.05;18.28
6096;BME280;25081;42.698;23.298;2022-07-22T08:59:02;95352.59;;;40.53;17.42
6096;BME280;25081;42.698;23.298;2022-07-22T09:01:13;95352.81;;;40.50;17.83
6096;BME280;25081;42.698;23.298;2022-07-22T09:03:23;95350.89;;;38.63;19.56
6096;BME280;25081;42.698;23.298;2022-07-22T09:05:34;95348.69;;;38.59;19.15
6096;BME280;25081;42.698;23.298;2022-07-22T09:07:45;95354.09;;;37.88;20.60
6096;BME280;25081;42.698;23.298;2022-07-22T09:09:56;95354.75;;;38.09;20.44
6096;BME280;25081;42.698;23.298;2022-07-22T09:12:07;95349.66;;;39.43;19.39
6096;BME280;25081;42.698;23.298;2022-07-22T09:14:18;95350.27;;;40.08;17.67
6096;BME280;25081;42.698;23.298;2022-07-22T09:16:42;95353.44;;;40.72;17.48
6096;BME280;25081;42.698;23.298;2022-07-22T09:18:52;95355.38;;;40.53;15.87
6096;BME280;25081;42.698;23.298;2022-07-22T09:21:03;95353.63;;;39.60;16.73
6096;BME280;25081;42.698;23.298;2022-07-22T09:23:14;95355.91;;;37.97;18.26
6096;BME280;25081;42.698;23.298;2022-07-22T09:25:28;95355.83;;;35.58;21.36
6096;BME280;25081;42.698;23.298;2022-07-22T09:27:38;95354.46;;;36.08;20.89
6096;BME280;25081;42.698;23.298;2022-07-22T09:29:51;95354.69;;;36.91;20.95
6096;BME280;25081;42.698;23.298;2022-07-22T09:32:01;95345.99;;;38.03;19.71
6096;BME280;25081;42.698;23.298;2022-07-22T09:34:12;95347.23;;;36.82;20.43
6096;BME280;25081;42.698;23.298;2022-07-22T09:36:23;95341.20;;;35.44;21.90
6096;BME280;25081;42.698;23.298;2022-07-22T09:38:34;95344.39;;;36.10;21.46
6096;BME280;25081;42.698;23.298;2022-07-22T09:40:45;95344.55;;;37.51;20.47
6096;BME280;25081;42.698;23.298;2022-07-22T09:42:56;95343.95;;;38.81;19.49
6096;BME280;25081;42.698;23.298;2022-07-22T09:45:08;95343.14;;;38.70;18.83
6096;BME280;25081;42.698;23.298;2022-07-22T09:47:29;95349.66;;;39.43;17.91
6096;BME280;25081;42.698;23.298;2022-07-22T09:49:39;95342.75;;;38.86;18.46
6096;BME280;25081;42.698;23.298;2022-07-22T09:51:49;95337.56;;;39.09;18.37
6096;BME280;25081;42.698;23.298;2022-07-22T09:54:00;95337.69;;;39.49;17.66
6096;BME280;25081;42.698;23.298;2022-07-22T09:56:11;95338.17;;;39.19;18.17
6096;BME280;25081;42.698;23.298;2022-07-22T09:58:21;95328.19;;;38.97;17.95
6096;BME280;25081;42.698;23.298;2022-07-22T10:00:32;95330.96;;;39.08;18.09
6096;BME280;25081;42.698;23.298;2022-07-22T10:02:46;95330.80;;;39.14;18.05
6096;BME280;25081;42.698;23.298;2022-07-22T10:04:56;95331.11;;;39.44;18.01
6096;BME280;25081;42.698;23.298;2022-07-22T10:07:06;95328.98;;;39.30;17.89
6096;BME280;25081;42.698;23.298;2022-07-22T10:09:17;95321.02;;;38.32;19.09
6096;BME280;25081;42.698;23.298;2022-07-22T10:11:28;95325.43;;;38.90;18.95
6096;BME280;25081;42.698;23.298;2022-07-22T10:13:39;95328.00;;;38.89;19.04
6096;BME280;25081;42.698;23.298;2022-07-22T10:15:50;95323.39;;;39.30;17.60
6096;BME280;25081;42.698;23.298;2022-07-22T10:18:04;95319.08;;;39.72;16.94
6096;BME280;25081;42.698;23.298;2022-07-22T10:20:12;95322.74;;;39.99;16.46
6096;BME280;25081;42.698;23.298;2022-07-22T10:22:47;95320.58;;;39.33;16.97
6096;BME280;25081;42.698;23.298;2022-07-22T10:25:05;95316.75;;;39.49;16.98
6096;BME280;25081;42.698;23.298;2022-07-22T10:27:15;95320.59;;;39.26;17.14
6096;BME280;25081;42.698;23.298;2022-07-22T10:29:30;95316.05;;;38.96;17.93
6096;BME280;25081;42.698;23.298;2022-07-22T10:31:40;95308.91;;;37.78;18.72
6096;BME280;25081;42.698;23.298;2022-07-22T10:33:51;95312.39;;;37.57;19.28
6096;BME280;25081;42.698;23.298;2022-07-22T10:36:03;95312.55;;;37.47;19.63
6096;BME280;25081;42.698;23.298;2022-07-22T10:38:12;95309.77;;;37.96;18.75
6096;BME280;25081;42.698;23.298;2022-07-22T10:40:24;95306.13;;;37.78;19.46
6096;BME280;25081;42.698;23.298;2022-07-22T10:43:04;95305.98;;;37.95;18.72
6096;BME280;25081;42.698;23.298;2022-07-22T10:45:15;95303.89;;;38.58;18.08
6096;BME280;25081;42.698;23.298;2022-07-22T10:47:52;95297.06;;;39.38;17.57
6096;BME280;25081;42.698;23.298;2022-07-22T10:52:49;95299.77;;;39.63;16.93
6096;BME280;25081;42.698;23.298;2022-07-22T10:55:21;95300.12;;;38.64;18.11
6096;BME280;25081;42.698;23.298;2022-07-22T10:57:31;95300.27;;;37.63;19.48
6096;BME280;25081;42.698;23.298;2022-07-22T10:59:41;95294.48;;;38.14;18.98
6096;BME280;25081;42.698;23.298;2022-07-22T11:01:52;95299.22;;;37.96;18.97
6096;BME280;25081;42.698;23.298;2022-07-22T11:04:14;95295.52;;;38.26;18.86
6096;BME280;25081;42.698;23.298;2022-07-22T11:06:29;95295.34;;;38.64;18.52
6096;BME280;25081;42.698;23.298;2022-07-22T11:08:38;95298.82;;;38.01;19.15
6096;BME280;25081;42.698;23.298;2022-07-22T11:10:49;95291.34;;;38.30;18.17
6096;BME280;25081;42.698;23.298;2022-07-22T11:13:00;95299.02;;;37.95;18.22
6096;BME280;25081;42.698;23.298;2022-07-22T11:15:11;95299.02;;;38.02;18.38
6096;BME280;25081;42.698;23.298;2022-07-22T11:17:22;95296.84;;;37.49;18.59
6096;BME280;25081;42.698;23.298;2022-07-22T11:19:32;95293.79;;;37.03;18.78
6096;BME280;25081;42.698;23.298;2022-07-22T11:21:48;95294.78;;;37.01;18.89
6096;BME280;25081;42.698;23.298;2022-07-22T11:23:54;95296.63;;;37.10;18.85
6096;BME280;25081;42.698;23.298;2022-07-22T11:26:05;95293.97;;;36.96;18.95
6096;BME280;25081;42.698;23.298;2022-07-22T11:28:15;95296.14;;;36.29;19.62
6096;BME280;25081;42.698;23.298;2022-07-22T11:30:26;95291.33;;;36.39;19.50
6096;BME280;25081;42.698;23.298;2022-07-22T11:32:41;95294.25;;;35.45;20.53
6096;BME280;25081;42.698;23.298;2022-07-22T11:34:47;95288.53;;;35.48;20.83
6096;BME280;25081;42.698;23.298;2022-07-22T11:36:58;95284.61;;;35.69;20.60